Time;durP1;ratioP1;P1;durP2;ratioP2;P2;SDS_P1;SDS_P2;PMS_P1;PMS_P2;Temp;Humidity;BMP_temperature;BMP_pressure;BME280_temperature;BME280_humidity;BME280_pressure;Samples;Min_cycle;Max_cycle;Signal;HPM_P1;HPM_P2
2022/04/20 00:02:18;;;;;;;19.45;8.35;;;;;;;4.04;100.00;98599.47;4386586;32;20047;-73
2022/04/20 00:04:45;;;;;;;17.05;7.60;;;;;;;4.07;100.00;98595.53;4390729;32;20074;-76
2022/04/20 00:07:11;;;;;;;20.40;8.45;;;;;;;4.11;100.00;98602.06;4388780;32;20035;-74
2022/04/20 00:09:38;;;;;;;14.32;6.85;;;;;;;4.11;100.00;98600.19;4386602;32;20083;-74
2022/04/20 00:12:05;;;;;;;13.35;6.72;;;;;;;3.86;100.00;98554.94;4400530;32;20078;-75
2022/04/20 00:14:31;;;;;;;15.27;7.87;;;;;;;3.76;100.00;98535.97;4387209;32;20019;-75
2022/04/20 00:16:58;;;;;;;17.37;8.27;;;;;;;4.12;100.00;98593.03;4386071;32;20042;-75
2022/04/20 00:19:25;;;;;;;13.70;7.68;;;;;;;3.97;100.00;98570.22;4399983;32;20448;-74
2022/04/20 00:21:52;;;;;;;14.70;6.87;;;;;;;3.88;100.00;98555.53;4393320;32;20434;-73
2022/04/20 00:24:18;;;;;;;16.50;8.05;;;;;;;4.06;100.00;98583.25;4400224;32;20490;-73
2022/04/20 00:26:45;;;;;;;13.27;7.43;;;;;;;3.83;100.00;98544.72;4386176;32;20065;-75
2022/04/20 00:29:11;;;;;;;15.57;7.12;;;;;;;3.84;100.00;98543.66;4385179;32;20383;-73
2022/04/20 00:31:38;;;;;;;13.20;6.90;;;;;;;3.75;100.00;98544.97;4386686;32;20062;-73
2022/04/20 00:34:04;;;;;;;14.13;6.70;;;;;;;4.00;100.00;98585.75;4386008;32;20074;-74
2022/04/20 00:36:30;;;;;;;14.25;7.20;;;;;;;3.98;100.00;98587.81;4384787;32;20035;-73
2022/04/20 00:38:57;;;;;;;11.90;7.03;;;;;;;3.97;100.00;98588.03;4390295;32;20072;-76
2022/04/20 00:41:24;;;;;;;13.23;6.80;;;;;;;3.87;100.00;98585.84;4388483;32;20048;-74
2022/04/20 00:43:50;;;;;;;17.83;7.12;;;;;;;3.99;100.00;98589.47;4386518;32;20075;-74
2022/04/20 00:46:19;;;;;;;12.90;6.82;;;;;;;4.02;100.00;98587.38;4387542;32;20112;-74
2022/04/20 00:48:47;;;;;;;17.02;7.28;;;;;;;4.03;100.00;98586.34;4400108;32;20038;-74
2022/04/20 00:51:14;;;;;;;14.23;8.07;;;;;;;3.81;100.00;98549.44;4373223;32;20055;-75
2022/04/20 00:53:41;;;;;;;15.32;7.90;;;;;;;3.81;100.00;98544.09;4372922;32;20051;-74
2022/04/20 00:56:08;;;;;;;13.80;7.62;;;;;;;4.10;100.00;98584.44;4399729;32;20042;-74
2022/04/20 00:58:39;;;;;;;15.70;8.65;;;;;;;4.03;100.00;98586.34;4401456;32;20078;-74
2022/04/20 01:01:08;;;;;;;19.62;8.23;;;;;;;4.05;100.00;98585.09;4399703;32;20061;-77
2022/04/20 01:03:36;;;;;;;16.25;7.57;;;;;;;3.97;100.00;98570.22;4401265;32;20060;-75
2022/04/20 01:06:06;;;;;;;18.95;8.88;;;;;;;4.00;100.00;98569.78;4401479;32;20035;-75
2022/04/20 01:08:34;;;;;;;21.73;8.25;;;;;;;4.00;100.00;98574.28;4400450;32;20355;-74
2022/04/20 01:11:01;;;;;;;14.05;8.45;;;;;;;3.98;100.00;98569.16;4391693;32;20088;-75
2022/04/20 01:13:29;;;;;;;16.42;8.50;;;;;;;3.72;100.00;98532.94;4370680;32;20028;-74
2022/04/20 01:15:56;;;;;;;23.02;8.43;;;;;;;3.52;100.00;98495.00;4386452;32;20204;-75
2022/04/20 01:18:24;;;;;;;17.62;8.65;;;;;;;4.00;100.00;98569.78;4373157;32;20094;-74
2022/04/20 01:20:50;;;;;;;16.37;8.20;;;;;;;3.77;100.00;98538.41;4387830;32;20031;-74
2022/04/20 01:23:17;;;;;;;15.10;8.15;;;;;;;3.99;100.00;98567.34;4399136;32;20064;-76
2022/04/20 01:25:44;;;;;;;17.52;10.07;;;;;;;3.74;100.00;98527.38;4392461;32;20091;-75
2022/04/20 01:28:12;;;;;;;16.12;8.40;;;;;;;3.96;100.00;98565.09;4403158;32;20038;-74
2022/04/20 01:30:39;;;;;;;20.65;9.07;;;;;;;3.77;100.00;98517.09;4404489;32;20065;-74
2022/04/20 01:33:06;;;;;;;18.08;8.18;;;;;;;4.02;100.00;98560.75;4376815;32;20039;-76
2022/04/20 01:35:33;;;;;;;22.73;9.40;;;;;;;3.97;100.00;98554.22;4389814;32;20730;-74
2022/04/20 01:37:59;;;;;;;19.30;9.00;;;;;;;3.74;100.00;98506.09;4403509;32;20422;-75
2022/04/20 01:40:26;;;;;;;19.17;9.40;;;;;;;3.65;100.00;98492.22;4390159;32;20055;-75
2022/04/20 01:42:52;;;;;;;21.20;10.05;;;;;;;3.72;100.00;98505.47;4403494;32;20027;-74
2022/04/20 01:45:19;;;;;;;18.48;9.82;;;;;;;3.82;100.00;98524.44;4398604;32;20103;-75
2022/04/20 01:47:45;;;;;;;15.50;8.38;;;;;;;3.82;100.00;98524.44;4400303;32;20074;-74
2022/04/20 01:50:12;;;;;;;17.23;8.50;;;;;;;3.60;100.00;98490.19;4390698;32;20022;-75
2022/04/20 01:52:39;;;;;;;16.30;8.65;;;;;;;3.90;100.00;98532.16;4386235;32;20039;-74
2022/04/20 01:55:07;;;;;;;17.02;8.75;;;;;;;3.90;100.00;98532.16;4374140;32;20032;-76
2022/04/20 01:57:34;;;;;;;16.77;8.68;;;;;;;3.61;100.00;98486.50;4389629;32;20040;-75
2022/04/20 02:00:01;;;;;;;18.23;8.50;;;;;;;3.45;100.00;98449.81;4388763;32;20043;-75
2022/04/20 02:02:40;;;;;;;14.93;9.07;;;;;;;3.62;100.00;98472.19;4389563;32;20113;-75
2022/04/20 02:05:12;;;;;;;15.82;9.48;;;;;;;3.83;100.00;98504.78;4385294;32;20051;-75
2022/04/20 02:07:39;;;;;;;17.17;9.00;;;;;;;3.57;100.00;98463.22;4374000;32;20108;-75
2022/04/20 02:10:07;;;;;;;17.00;9.45;;;;;;;3.85;100.00;98493.91;4379811;32;20061;-75
2022/04/20 02:12:34;;;;;;;15.13;8.55;;;;;;;3.93;100.00;98505.09;4387335;32;20077;-74
2022/04/20 02:15:06;;;;;;;15.85;8.05;;;;;;;3.90;100.00;98500.19;4395632;32;20499;-76
2022/04/20 02:17:36;;;;;;;13.98;8.02;;;;;;;3.86;100.00;98503.50;4402628;32;20768;-75
2022/04/20 02:20:03;;;;;;;15.95;8.70;;;;;;;3.57;100.00;98453.34;4398655;32;20030;-74
2022/04/20 02:22:29;;;;;;;18.50;8.77;;;;;;;3.78;100.00;98500.09;4403759;32;20057;-74
2022/04/20 02:24:59;;;;;;;17.85;8.73;;;;;;;3.73;100.00;98493.78;4403864;32;20166;-75
2022/04/20 02:27:29;;;;;;;22.33;9.07;;;;;;;3.42;100.00;98463.53;4380815;32;20032;-76
2022/04/20 02:29:55;;;;;;;12.50;7.80;;;;;;;3.41;100.00;98469.87;4375608;32;20069;-74
2022/04/20 02:32:22;;;;;;;17.05;9.45;;;;;;;3.35;100.00;98460.09;4374356;32;20065;-74
2022/04/20 02:34:49;;;;;;;15.07;9.30;;;;;;;3.57;100.00;98482.66;4394886;32;20039;-74
2022/04/20 02:37:16;;;;;;;15.68;9.63;;;;;;;3.42;100.00;98495.47;4391558;32;20435;-75
2022/04/20 02:39:44;;;;;;;17.33;10.13;;;;;;;3.33;100.00;98488.78;4381613;32;20364;-74
2022/04/20 02:42:11;;;;;;;18.33;9.85;;;;;;;3.14;100.00;98432.81;4396754;32;20039;-75
2022/04/20 02:44:39;;;;;;;14.57;8.88;;;;;;;3.45;100.00;98487.06;4388217;32;20019;-74
2022/04/20 02:47:06;;;;;;;19.17;9.25;;;;;;;3.43;100.00;98478.47;4403279;32;20096;-74
2022/04/20 02:49:32;;;;;;;13.57;8.73;;;;;;;3.02;100.00;98434.56;4377463;32;20031;-76
2022/04/20 02:51:58;;;;;;;15.35;8.75;;;;;;;3.40;100.00;98473.59;4386811;32;20047;-74
2022/04/20 02:54:27;;;;;;;18.62;9.68;;;;;;;3.40;100.00;98479.72;4390467;32;20047;-75
2022/04/20 02:56:54;;;;;;;16.08;9.75;;;;;;;3.45;100.00;98479.09;4389546;32;20072;-74
2022/04/20 02:59:20;;;;;;;13.93;8.15;;;;;;;3.45;100.00;98490.53;4393376;32;20076;-75
2022/04/20 03:01:48;;;;;;;14.80;7.78;;;;;;;3.45;100.00;98492.37;4385154;32;20051;-75
2022/04/20 03:04:15;;;;;;;18.20;8.82;;;;;;;3.20;100.00;98447.13;4387137;32;20088;-74
2022/04/20 03:06:42;;;;;;;18.65;8.15;;;;;;;3.50;100.00;98489.09;4387583;32;20380;-75
2022/04/20 03:09:08;;;;;;;14.45;8.15;;;;;;;3.52;100.00;98487.00;4387376;32;20195;-74
2022/04/20 03:11:35;;;;;;;13.75;7.40;;;;;;;3.56;100.00;98494.34;4376014;32;20400;-77
2022/04/20 03:14:02;;;;;;;22.27;8.15;;;;;;;3.53;100.00;98484.13;4374668;32;20016;-75
2022/04/20 03:16:29;;;;;;;21.52;7.40;;;;;;;3.59;100.00;98483.25;4401799;32;20042;-75
2022/04/20 03:18:56;;;;;;;11.93;7.25;;;;;;;3.44;100.00;98459.63;4394394;32;20046;-75
2022/04/20 03:21:23;;;;;;;13.98;8.13;;;;;;;3.67;100.00;98479.53;4401976;32;20416;-74
2022/04/20 03:23:49;;;;;;;8.80;6.32;;;;;;;3.66;100.00;98479.72;4399872;32;20034;-75
2022/04/20 03:26:17;;;;;;;12.60;7.37;;;;;;;3.61;100.00;98464.41;4402695;32;20047;-74
2022/04/20 03:28:44;;;;;;;11.70;6.95;;;;;;;3.70;100.00;98475.59;4400458;32;20458;-75
2022/04/20 03:31:10;;;;;;;10.40;7.50;;;;;;;3.56;100.00;98456.28;4388933;32;20345;-74
2022/04/20 03:33:37;;;;;;;11.88;6.62;;;;;;;3.42;100.00;98434.28;4379384;32;20019;-77
2022/04/20 03:36:06;;;;;;;10.10;6.62;;;;;;;3.59;100.00;98469.13;4376349;32;20032;-76
2022/04/20 03:38:33;;;;;;;10.07;6.07;;;;;;;3.64;100.00;98459.47;4391975;32;20042;-74
2022/04/20 03:41:00;;;;;;;11.55;7.37;;;;;;;3.63;100.00;98444.50;4397833;32;20035;-74
2022/04/20 03:43:26;;;;;;;10.93;6.68;;;;;;;3.71;100.00;98463.91;4402994;32;20076;-74
2022/04/20 03:45:52;;;;;;;14.68;7.03;;;;;;;3.64;100.00;98459.47;4385588;32;20043;-75
2022/04/20 03:48:19;;;;;;;18.33;7.60;;;;;;;3.51;100.00;98417.00;4399158;32;20091;-74
2022/04/20 03:50:45;;;;;;;14.18;7.78;;;;;;;3.57;100.00;98416.09;4384621;32;20063;-74
2022/04/20 03:53:12;;;;;;;11.15;6.65;;;;;;;3.85;100.00;98454.75;4387081;32;20039;-74
2022/04/20 03:55:39;;;;;;;14.25;7.53;;;;;;;3.68;100.00;98429.72;4402412;32;20039;-75
2022/04/20 03:58:06;;;;;;;13.40;7.60;;;;;;;3.91;100.00;98443.22;4399820;32;20357;-74
2022/04/20 04:00:33;;;;;;;16.58;8.00;;;;;;;3.69;100.00;98412.72;4386405;32;20125;-74
2022/04/20 04:03:00;;;;;;;12.85;8.48;;;;;;;3.60;100.00;98420.97;4385669;32;20053;-74
2022/04/20 04:05:28;;;;;;;13.60;8.15;;;;;;;3.63;100.00;98415.22;4386310;32;20026;-75
2022/04/20 04:07:56;;;;;;;14.48;8.80;;;;;;;3.63;100.00;98415.22;4398641;32;20049;-75
2022/04/20 04:10:24;;;;;;;13.88;9.45;;;;;;;3.82;100.00;98452.53;4394901;32;20073;-75
2022/04/20 04:12:51;;;;;;;17.92;9.40;;;;;;;3.58;100.00;98411.59;4401899;32;20031;-74
2022/04/20 04:15:17;;;;;;;23.67;10.15;;;;;;;3.84;100.00;98452.31;4391860;32;20038;-74
2022/04/20 04:17:48;;;;;;;17.27;10.95;;;;;;;3.68;100.00;98443.84;4385663;32;20030;-77
2022/04/20 04:20:15;;;;;;;18.20;10.07;;;;;;;3.89;100.00;98455.94;4386691;32;20053;-75
2022/04/20 04:22:41;;;;;;;18.55;10.88;;;;;;;4.02;100.00;98454.19;4386181;32;20061;-75
2022/04/20 04:25:10;;;;;;;21.33;11.82;;;;;;;3.61;100.00;98422.63;4385624;32;20387;-74
2022/04/20 04:27:36;;;;;;;22.75;10.95;;;;;;;4.10;100.00;98461.87;4395882;32;20042;-76
2022/04/20 04:30:05;;;;;;;15.25;8.80;;;;;;;4.07;100.00;98446.34;4400230;32;20046;-75
2022/04/20 04:32:38;;;;;;;16.48;9.45;;;;;;;3.71;100.00;98415.97;4401520;32;20076;-72
2022/04/20 04:35:06;;;;;;;14.13;9.32;;;;;;;4.00;100.00;98463.22;4400717;32;20051;-73
2022/04/20 04:37:35;;;;;;;18.67;11.12;;;;;;;4.00;100.00;98463.22;4401133;32;20370;-73
2022/04/20 04:40:04;;;;;;;19.35;11.02;;;;;;;4.05;100.00;98469.72;4381425;32;20027;-75
2022/04/20 04:42:31;;;;;;;17.00;10.40;;;;;;;4.03;100.00;98455.81;4390405;32;20072;-72
2022/04/20 04:48:36;;;;;;;18.17;11.23;;;;;;;3.90;100.00;98430.94;4385745;32;20130;-72
2022/04/20 04:50:33;;;;;;;16.15;10.88;;;;;;;4.08;100.00;98453.28;4387985;32;20039;-74
2022/04/20 04:53:01;;;;;;;16.75;10.50;;;;;;;4.09;100.00;98461.06;4386886;32;20050;-74
2022/04/20 04:55:27;;;;;;;20.55;10.65;;;;;;;4.14;100.00;98457.75;4389519;32;20065;-74
2022/04/20 04:57:54;;;;;;;17.02;10.70;;;;;;;4.19;100.00;98449.88;4384182;32;20059;-74
2022/04/20 05:00:22;;;;;;;19.33;11.23;;;;;;;4.22;100.00;98449.44;4388776;32;20348;-74
2022/04/20 05:02:52;;;;;;;17.35;11.18;;;;;;;4.35;100.00;98437.81;4402815;32;20064;-73
2022/04/20 05:05:18;;;;;;;15.40;10.10;;;;;;;4.29;100.00;98426.22;4391863;32;20108;-73
2022/04/20 05:07:45;;;;;;;16.48;10.48;;;;;;;4.18;100.00;98397.66;4375206;32;20098;-73
2022/04/20 05:10:12;;;;;;;15.45;9.27;;;;;;;4.21;100.00;98399.84;4389111;32;20396;-74
2022/04/20 05:12:39;;;;;;;17.58;9.43;;;;;;;4.51;100.00;98431.06;4396588;32;20444;-74
2022/04/20 05:15:06;;;;;;;16.20;9.35;;;;;;;4.27;100.00;98388.28;4375441;32;20086;-77
2022/04/20 05:17:33;;;;;;;18.35;10.63;;;;;;;4.44;100.00;98411.69;4395833;32;20061;-73
2022/04/20 05:20:00;;;;;;;15.07;8.23;;;;;;;4.52;100.00;98411.38;4396861;32;20035;-73
2022/04/20 05:22:26;;;;;;;13.35;8.43;;;;;;;4.36;100.00;98381.62;4389621;32;20052;-73
2022/04/20 05:24:53;;;;;;;11.75;7.20;;;;;;;4.66;100.00;98418.16;4382806;32;20035;-74
2022/04/20 05:27:20;;;;;;;20.37;6.57;;;;;;;4.62;100.00;98411.62;4389008;32;20068;-75
2022/04/20 05:29:47;;;;;;;7.62;4.93;;;;;;;4.73;100.00;98413.53;4396693;32;20077;-74
2022/04/20 05:32:14;;;;;;;9.13;6.95;;;;;;;4.80;100.00;98409.94;4389068;32;20039;-74
2022/04/20 05:34:41;;;;;;;7.05;5.50;;;;;;;4.57;100.00;98368.84;4388091;32;20065;-75
2022/04/20 05:42:39;;;;;;;7.82;4.53;;;;;;;5.01;100.00;98401.44;4398068;32;20068;-76
2022/04/20 05:45:06;;;;;;;5.32;4.30;;;;;;;4.83;100.00;98374.81;4392242;32;20096;-75
2022/04/20 05:47:33;;;;;;;7.40;3.35;;;;;;;4.97;100.00;98402.94;4403162;32;20050;-73
2022/04/20 05:50:00;;;;;;;5.25;3.28;;;;;;;4.80;100.00;98407.28;4387589;32;20374;-73
2022/04/20 05:52:26;;;;;;;5.80;4.22;;;;;;;4.41;100.00;98350.81;4396995;32;20243;-74
2022/04/20 05:54:53;;;;;;;7.60;4.05;;;;;;;4.91;100.00;98409.16;4399676;32;20068;-76
2022/04/20 05:57:19;;;;;;;5.95;3.92;;;;;;;4.64;100.00;98353.56;4392954;32;20039;-75
2022/04/20 05:59:50;;;;;;;5.10;4.18;;;;;;;4.42;100.00;98363.09;4389298;32;20416;-74
2022/04/20 06:02:17;;;;;;;4.68;2.83;;;;;;;4.73;100.00;98383.38;4400872;32;20039;-74
2022/04/20 06:04:43;;;;;;;8.88;3.17;;;;;;;4.75;100.00;98399.97;4400855;32;20372;-76
2022/04/20 06:07:12;;;;;;;4.47;2.95;;;;;;;4.47;100.00;98349.91;4388739;32;20027;-75
2022/04/20 06:09:40;;;;;;;3.47;2.85;;;;;;;4.67;100.00;98398.41;4387527;32;20047;-73
2022/04/20 06:12:09;;;;;;;4.70;3.15;;;;;;;4.39;100.00;98358.22;4387838;32;20380;-73
2022/04/20 06:14:37;;;;;;;5.03;3.40;;;;;;;4.50;100.00;98349.44;4387286;32;20069;-77
2022/04/20 06:17:04;;;;;;;3.30;3.00;;;;;;;4.49;100.00;98379.81;4391529;32;20076;-75
2022/04/20 06:19:32;;;;;;;4.07;2.83;;;;;;;4.34;100.00;98345.56;4389351;32;20039;-74
2022/04/20 06:21:59;;;;;;;5.28;3.22;;;;;;;4.50;100.00;98378.75;4403487;32;20039;-75
2022/04/20 06:24:25;;;;;;;6.62;4.20;;;;;;;4.38;100.00;98346.75;4403333;32;20098;-74
2022/04/20 06:26:52;;;;;;;7.00;3.83;;;;;;;4.56;100.00;98369.87;4400076;32;20420;-74
2022/04/20 06:29:26;;;;;;;2.20;2.03;;;;;;;4.79;100.00;98392.34;4403348;32;20050;-74
2022/04/20 06:31:52;;;;;;;2.58;2.12;;;;;;;4.20;100.00;98344.94;4393751;32;20030;-74
2022/04/20 06:34:19;;;;;;;5.80;2.45;;;;;;;4.33;100.00;98381.25;4402738;32;20035;-74
2022/04/20 06:36:46;;;;;;;2.72;1.83;;;;;;;4.30;100.00;98377.19;4399381;32;20090;-74
2022/04/20 06:39:13;;;;;;;2.28;2.05;;;;;;;4.06;100.00;98359.47;4402456;32;20051;-74
2022/04/20 06:41:39;;;;;;;3.33;2.70;;;;;;;4.19;100.00;98369.94;4402975;32;20027;-74
2022/04/20 06:44:07;;;;;;;2.70;2.33;;;;;;;3.94;100.00;98330.91;4386679;32;20059;-74
2022/04/20 06:46:34;;;;;;;3.00;2.15;;;;;;;3.99;100.00;98339.03;4391102;32;20034;-75
2022/04/20 06:49:00;;;;;;;4.05;3.00;;;;;;;4.24;100.00;98370.09;4401425;32;20039;-74
2022/04/20 06:58:31;;;;;;;4.37;3.10;;;;;;;4.39;100.00;98375.03;4394602;32;20048;-74
2022/04/20 06:59:50;;;;;;;5.68;2.25;;;;;;;4.04;100.00;98334.88;4386031;32;20039;-74
2022/04/20 07:02:17;;;;;;;5.47;3.00;;;;;;;4.23;100.00;98371.13;4393161;32;20050;-74
2022/04/20 07:04:43;;;;;;;3.17;2.53;;;;;;;4.11;100.00;98368.41;4390689;32;20039;-74
2022/04/20 07:07:10;;;;;;;4.32;2.70;;;;;;;4.30;100.00;98371.06;4389874;32;20042;-75
2022/04/20 07:09:36;;;;;;;3.37;2.20;;;;;;;4.32;100.00;98359.12;4397259;32;20092;-77
2022/04/20 07:12:03;;;;;;;2.08;1.90;;;;;;;4.39;100.00;98371.53;4397800;32;20090;-74
2022/04/20 07:14:31;;;;;;;2.20;2.00;;;;;;;4.19;100.00;98327.31;4398312;32;20042;-75
2022/04/20 07:17:06;;;;;;;3.15;2.67;;;;;;;4.32;100.00;98359.12;4401147;32;20333;-74
2022/04/20 07:19:33;;;;;;;3.17;2.55;;;;;;;4.33;100.00;98360.75;4396256;32;20039;-75
2022/04/20 07:22:00;;;;;;;5.37;3.03;;;;;;;4.37;100.00;98371.75;4393611;32;20076;-74
2022/04/20 07:24:27;;;;;;;32.97;3.03;;;;;;;3.97;100.00;98325.16;4396577;32;20069;-74
2022/04/20 07:26:54;;;;;;;2.78;2.03;;;;;;;4.25;100.00;98378.91;4397079;32;20081;-75
2022/04/20 07:29:21;;;;;;;1.92;1.80;;;;;;;4.26;100.00;98370.69;4397096;32;20039;-74
2022/04/20 07:31:48;;;;;;;1.92;1.83;;;;;;;4.06;100.00;98338.16;4399537;32;20342;-74
2022/04/20 07:34:15;;;;;;;2.75;2.20;;;;;;;4.17;100.00;98356.03;4400681;32;20117;-74
2022/04/20 07:36:42;;;;;;;4.15;2.30;;;;;;;4.25;100.00;98363.72;4391630;32;20028;-74
2022/04/20 07:39:10;;;;;;;4.00;2.33;;;;;;;4.10;100.00;98323.31;4396842;32;20073;-73
2022/04/20 07:41:39;;;;;;;3.05;2.60;;;;;;;4.40;100.00;98359.84;4388233;32;20031;-78
2022/04/20 07:44:06;;;;;;;3.62;1.98;;;;;;;4.39;100.00;98358.22;4385571;32;20061;-73
2022/04/20 07:46:32;;;;;;;7.18;1.95;;;;;;;4.06;100.00;98324.84;4384928;32;20039;-74
2022/04/20 07:50:17;;;;;;;3.92;2.20;;;;;;;4.24;100.00;98346.09;4386765;32;20035;-74
2022/04/20 07:51:46;;;;;;;2.80;1.92;;;;;;;4.21;100.00;98341.22;4385498;32;20397;-73
2022/04/20 07:54:15;;;;;;;4.62;2.00;;;;;;;4.10;100.00;98307.34;4390307;32;20440;-75
2022/04/20 07:56:48;;;;;;;5.45;2.22;;;;;;;4.28;100.00;98319.84;4385924;32;20046;-73
2022/04/20 07:59:14;;;;;;;1.83;1.60;;;;;;;4.04;100.00;98300.25;4387769;32;20031;-74
2022/04/20 08:01:41;;;;;;;5.75;3.08;;;;;;;4.13;100.00;98318.38;4375909;32;20345;-80
2022/04/20 08:04:11;;;;;;;3.85;2.25;;;;;;;4.34;100.00;98335.72;4386583;32;20573;-74
2022/04/20 08:06:38;;;;;;;4.50;2.78;;;;;;;4.47;100.00;98331.25;4373349;32;20039;-73
2022/04/20 08:09:05;;;;;;;2.58;2.20;;;;;;;4.41;100.00;98342.81;4386854;32;20047;-74
2022/04/20 08:11:32;;;;;;;9.13;2.22;;;;;;;4.26;100.00;98317.41;4385166;32;20072;-74
2022/04/20 08:14:12;;;;;;;4.03;2.70;;;;;;;4.35;100.00;98328.53;4387618;32;20035;-75
2022/04/20 08:16:39;;;;;;;5.57;2.33;;;;;;;4.36;100.00;98335.50;4390757;32;20438;-72
2022/04/20 08:19:07;;;;;;;8.93;3.45;;;;;;;4.00;100.00;98290.06;4386546;32;20057;-74
2022/04/20 08:21:36;;;;;;;2.45;1.90;;;;;;;4.44;100.00;98324.50;4373068;32;20443;-73
2022/04/20 08:24:04;;;;;;;3.75;2.22;;;;;;;4.22;100.00;98332.19;4394598;32;20038;-74
2022/04/20 08:26:30;;;;;;;3.58;2.50;;;;;;;4.32;100.00;98327.16;4402163;32;20031;-74
2022/04/20 08:28:56;;;;;;;5.53;2.33;;;;;;;4.46;100.00;98327.75;4387113;32;20096;-74
2022/04/20 08:31:24;;;;;;;5.05;2.85;;;;;;;4.08;100.00;98288.13;4388747;32;20059;-74
2022/04/20 08:33:51;;;;;;;2.42;1.87;;;;;;;4.37;100.00;98313.97;4397989;32;20035;-76
2022/04/20 08:36:17;;;;;;;4.07;2.20;;;;;;;4.39;100.00;98336.88;4399978;32;20042;-75
2022/04/20 08:38:44;;;;;;;2.25;1.50;;;;;;;4.02;100.00;98283.69;4393277;32;20049;-73
2022/04/20 08:41:14;;;;;;;3.25;1.83;;;;;;;4.24;100.00;98292.81;4399706;32;20039;-74
2022/04/20 08:43:41;;;;;;;2.80;1.75;;;;;;;4.55;100.00;98329.06;4379450;32;20053;-77
2022/04/20 08:46:10;;;;;;;2.00;1.83;;;;;;;4.60;100.00;98317.72;4374649;32;20038;-77
2022/04/20 08:48:37;;;;;;;1.55;1.45;;;;;;;4.54;100.00;98318.63;4389325;32;20445;-76
2022/04/20 08:51:06;;;;;;;5.05;1.50;;;;;;;4.51;100.00;98313.75;4394608;32;20039;-74
2022/04/20 08:53:33;;;;;;;5.37;1.75;;;;;;;4.32;100.00;98289.84;4379943;32;20032;-74
2022/04/20 08:58:50;;;;;;;7.18;1.70;;;;;;;4.13;100.00;98250.94;4401480;32;20069;-73
2022/04/20 09:01:18;;;;;;;3.12;1.92;;;;;;;4.31;100.00;98272.22;4390991;32;20043;-73
2022/04/20 09:03:46;;;;;;;12.50;2.17;;;;;;;4.56;100.00;98311.22;4383558;32;20392;-74
2022/04/20 09:06:14;;;;;;;6.07;3.55;;;;;;;4.41;100.00;98273.53;4390008;32;20075;-73
2022/04/20 09:08:41;;;;;;;4.25;2.83;;;;;;;4.76;100.00;98300.25;4400967;32;20494;-73
2022/04/20 09:11:08;;;;;;;2.95;2.47;;;;;;;4.93;100.00;98289.72;4397676;32;20368;-72
2022/04/20 09:13:38;;;;;;;3.25;2.58;;;;;;;5.05;100.00;98295.84;4397633;32;20047;-74
2022/04/20 09:16:10;;;;;;;1.67;1.58;;;;;;;5.22;100.00;98309.31;4395150;32;20417;-75
2022/04/20 09:18:39;;;;;;;2.00;1.65;;;;;;;5.02;100.00;98277.63;4402890;32;20114;-74
2022/04/20 09:21:10;;;;;;;1.42;1.33;;;;;;;5.06;100.00;98294.81;4390644;32;20413;-75
2022/04/20 09:23:41;;;;;;;1.65;1.55;;;;;;;5.19;100.00;98290.31;4392910;32;20051;-76
2022/04/20 09:26:15;;;;;;;1.62;1.52;;;;;;;4.97;100.00;98237.50;4396181;32;20113;-74
2022/04/20 09:29:06;;;;;;;1.77;1.60;;;;;;;5.58;100.00;98290.59;4398825;32;20042;-73
2022/04/20 09:31:43;;;;;;;2.03;1.50;;;;;;;5.61;100.00;98282.91;4399542;32;20026;-73
2022/04/20 09:34:33;;;;;;;3.35;1.58;;;;;;;5.78;100.00;98293.69;4394162;32;20065;-73
2022/04/20 09:37:13;;;;;;;1.75;1.65;;;;;;;5.61;100.00;98285.59;4385281;32;20064;-74
2022/04/20 09:39:50;;;;;;;6.22;2.45;;;;;;;5.52;100.00;98280.84;4396453;32;20061;-74
2022/04/20 09:42:18;;;;;;;3.83;2.15;;;;;;;5.81;100.00;98289.75;4391069;32;20043;-75
2022/04/20 09:45:12;;;;;;;2.37;1.80;;;;;;;5.75;100.00;98283.47;4397774;32;20047;-74
2022/04/20 09:50:26;;;;;;;3.80;2.03;;;;;;;5.66;100.00;98294.75;4394959;32;20058;-74
2022/04/20 09:52:55;;;;;;;6.85;2.55;;;;;;;5.54;100.00;98268.91;4391660;32;20966;-73
2022/04/20 09:55:33;;;;;;;2.00;1.90;;;;;;;5.67;100.00;98289.19;4402928;32;20031;-73
2022/04/20 09:58:11;;;;;;;2.05;1.92;;;;;;;5.68;100.00;98290.00;4400338;32;20038;-73
2022/04/20 10:00:42;;;;;;;2.47;1.98;;;;;;;5.57;100.00;98265.75;4394862;32;20027;-73
2022/04/20 10:03:09;;;;;;;1.75;1.65;;;;;;;5.74;100.00;98300.53;4397325;32;20047;-73
2022/04/20 10:05:37;;;;;;;3.85;2.12;;;;;;;5.64;100.00;98300.34;4400414;32;20031;-76
2022/04/20 10:08:04;;;;;;;3.90;2.20;;;;;;;5.19;100.00;98263.63;4396783;32;20023;-73
2022/04/20 10:10:33;;;;;;;2.30;2.03;;;;;;;5.16;100.00;98298.78;4400904;32;20068;-74
2022/04/20 10:13:02;;;;;;;2.67;1.90;;;;;;;5.32;100.00;98318.63;4392302;32;20040;-74
2022/04/20 10:18:21;;;;;;;3.00;2.60;;;;;;;5.42;100.00;98318.81;4402848;32;20057;-75
2022/04/20 10:20:50;;;;;;;2.60;1.73;;;;;;;5.34;100.00;98306.63;4402882;32;20072;-74
2022/04/20 10:23:22;;;;;;;5.00;2.92;;;;;;;5.38;100.00;98318.50;4401706;32;20046;-77
2022/04/20 10:25:50;;;;;;;3.85;3.05;;;;;;;5.52;100.00;98324.41;4402094;32;20055;-73
2022/04/20 10:28:30;;;;;;;2.50;2.30;;;;;;;5.22;100.00;98271.97;4402300;32;20034;-73
2022/04/20 10:31:15;;;;;;;4.80;3.17;;;;;;;5.31;100.00;98296.44;4406146;32;20075;-75
2022/04/20 10:33:43;;;;;;;5.47;2.37;;;;;;;5.36;100.00;98255.69;4398942;32;20384;-74
2022/04/20 10:36:16;;;;;;;3.05;2.65;;;;;;;5.67;100.00;98285.72;4393496;32;20076;-74
2022/04/20 10:38:46;;;;;;;5.35;2.90;;;;;;;5.53;100.00;98245.09;4393954;32;20061;-76
2022/04/20 10:41:18;;;;;;;4.60;2.65;;;;;;;5.93;100.00;98297.72;4399974;32;20068;-73
2022/04/20 10:43:46;;;;;;;3.37;2.67;;;;;;;5.94;100.00;98291.34;4403108;32;20047;-74
2022/04/20 10:46:20;;;;;;;6.03;2.90;;;;;;;5.76;100.00;98266.41;4400740;32;20069;-74
2022/04/20 10:48:55;;;;;;;3.03;2.62;;;;;;;5.81;100.00;98301.22;4400149;32;20441;-74
2022/04/20 10:51:24;;;;;;;8.77;2.30;;;;;;;5.82;100.00;98297.53;4400991;32;20462;-73
2022/04/20 10:53:52;;;;;;;2.78;2.40;;;;;;;5.79;100.00;98305.19;4400713;32;20059;-74
2022/04/20 10:56:21;;;;;;;5.47;2.90;;;;;;;5.71;100.00;98271.66;4388466;32;20356;-73
2022/04/20 10:58:52;;;;;;;8.20;3.08;;;;;;;5.63;100.00;98234.59;4387115;32;20076;-74
2022/04/20 11:01:19;;;;;;;4.50;2.60;;;;;;;5.96;100.00;98265.19;4399337;32;20384;-73
2022/04/20 11:03:52;;;;;;;3.03;2.62;;;;;;;6.10;100.00;98301.28;4401373;32;20071;-74
2022/04/20 11:06:19;;;;;;;4.15;2.80;;;;;;;5.70;100.00;98272.69;4385740;32;20049;-74
2022/04/20 11:08:49;;;;;;;4.18;3.17;;;;;;;5.98;100.00;98311.19;4401057;32;20047;-73
2022/04/20 11:19:52;;;;;;;6.35;3.37;;;;;;;5.86;100.00;98302.41;4402505;32;20068;-74
2022/04/20 11:22:21;;;;;;;4.05;2.97;;;;;;;5.69;100.00;98308.44;4389223;32;20093;-73
2022/04/20 11:25:00;;;;;;;3.72;3.28;;;;;;;5.81;100.00;98300.44;4402310;32;20034;-76
2022/04/20 11:27:36;;;;;;;4.50;3.08;;;;;;;5.83;100.00;98309.81;4400794;32;20884;-74
2022/04/20 11:30:07;;;;;;;6.47;2.85;;;;;;;5.92;100.00;98307.59;4402512;32;20375;-74
2022/04/20 11:32:34;;;;;;;5.43;3.40;;;;;;;5.79;100.00;98314.03;4388729;32;20035;-75
2022/04/20 11:35:06;;;;;;;8.65;5.55;;;;;;;5.67;100.00;98280.38;4397913;32;20352;-75
2022/04/20 11:37:37;;;;;;;12.10;3.35;;;;;;;5.84;100.00;98273.25;4397377;32;20403;-74
2022/04/20 11:40:13;;;;;;;5.87;3.33;;;;;;;5.97;100.00;98309.59;4399370;32;20063;-74
2022/04/20 11:42:40;;;;;;;5.60;3.90;;;;;;;5.81;100.00;98258.50;4397995;32;20061;-73
2022/04/20 11:45:07;;;;;;;6.03;3.70;;;;;;;6.13;100.00;98308.03;4389280;32;20072;-73
2022/04/20 11:47:40;;;;;;;6.00;3.62;;;;;;;6.04;100.00;98296.88;4417548;32;20054;-75
2022/04/20 11:50:08;;;;;;;5.45;3.35;;;;;;;6.24;100.00;98309.00;4386518;32;20043;-74
2022/04/20 11:52:36;;;;;;;4.57;2.83;;;;;;;6.22;100.00;98311.13;4362931;32;20079;-73
2022/04/20 11:55:09;;;;;;;3.47;2.62;;;;;;;5.80;100.00;98315.63;4397017;32;20195;-74
2022/04/20 11:57:38;;;;;;;3.80;3.30;;;;;;;5.81;100.00;98322.59;4399510;32;20088;-74
2022/04/20 12:00:05;;;;;;;4.30;2.80;;;;;;;5.86;100.00;98297.84;4402191;32;20457;-73
2022/04/20 12:02:39;;;;;;;4.10;2.90;;;;;;;5.59;100.00;98306.38;4390414;32;20113;-73
2022/04/20 12:05:09;;;;;;;5.97;3.15;;;;;;;5.77;100.00;98316.09;4386820;32;20076;-73
2022/04/20 12:07:36;;;;;;;2.70;2.45;;;;;;;5.96;100.00;98307.94;4386806;32;20430;-73